Archival Weather

Los Angeles Intl

Los Angeles, California (KLAX)

Report from: Thursday, September 21, 2023 7:53 AM PDT
Current time: Saturday, March 2, 2024 1:23 AM PST

Current weather – Weather history – Daily summaries
Weather forecast

Temperature18.3°C (64.9°F)
Dew point16.1°C (61.0°F)
Winds 5 kts (2.6 m/s, 5.8 mph) Southwest (220°)
Visibility10 mi. (16.1 km)
Clouds Scattered clouds 1,000 ft. (305 m)
Ceiling: Broken clouds 2,400 ft. (732 m)
Overcast 4,400 ft. (1,341 m)
Altimeter29.93 in.Hg (1014 mB)
Relative humidity87 %
Density altitude641 ft. (195 m)
Sea-level pressure101.3 kPa (1013 mB, 29.92 in.Hg)
Remarks Automated weather observing station with precipitation discriminator
Pressure rising more quickly
Flight conditions Marginal Visual Meteorological Conditions
Raw dataKLAX 211453Z 22005KT 10SM SCT010 BKN024 OVC044 18/16 A2993 RMK AO2 SLP132 T01830161 53012
An error has occurred. This application may no longer respond until reloaded. Reload 🗙